<?xml version="1.0" encoding="UTF-8" standalone="no" ?><gpx xmlns="http://www.topografix.com/GPX/1/1" xmlns:gpxx="http://www.garmin.com/xmlschemas/GpxExtensions/v3" xmlns:wptx1="http://www.garmin.com/xmlschemas/WaypointExtension/v1" xmlns:gpxtpx="http://www.garmin.com/xmlschemas/TrackPointExtension/v1" creator="Dakota 20" version="1.1" xmlns:xsi="http://www.w3.org/2001/XMLSchema-instance" xsi:schemaLocation="http://www.topografix.com/GPX/1/1 http://www.topografix.com/GPX/1/1/gpx.xsd http://www.garmin.com/xmlschemas/GpxExtensions/v3 http://www8.garmin.com/xmlschemas/GpxExtensionsv3.xsd http://www.garmin.com/xmlschemas/WaypointExtension/v1 http://www8.garmin.com/xmlschemas/WaypointExtensionv1.xsd http://www.garmin.com/xmlschemas/TrackPointExtension/v1 http://www.garmin.com/xmlschemas/TrackPointExtensionv1.xsd"><metadata><link href="http://www.garmin.com"><text>Garmin International</text></link><time>2014-04-30T14:35:13Z</time></metadata><trk><name>Current Track: 30 APR 2014 10:03</name><extensions><gpxx:TrackExtension><gpxx:DisplayColor>Cyan</gpxx:DisplayColor></gpxx:TrackExtension></extensions><trkseg><trkpt lat="51.8166426849" lon="-1.7045663763"><ele>118.86</ele><time>2014-04-30T09:03:35Z</time></trkpt><trkpt lat="51.8165879510" lon="-1.7045966350"><ele>119.34</ele><time>2014-04-30T09:03:52Z</time></trkpt><trkpt lat="51.8165518250" lon="-1.7046245467"><ele>119.34</ele><time>2014-04-30T09:03:54Z</time></trkpt><trkpt lat="51.8164553493" lon="-1.7046702281"><ele>119.82</ele><time>2014-04-30T09:03:59Z</time></trkpt><trkpt lat="51.8161795009" lon="-1.7048592400"><ele>121.74</ele><time>2014-04-30T09:04:21Z</time></trkpt><trkpt lat="51.8161103502" lon="-1.7050437257"><ele>124.63</ele><time>2014-04-30T09:04:37Z</time></trkpt><trkpt lat="51.8162379228" lon="-1.7051967792"><ele>126.07</ele><time>2014-04-30T09:04:56Z</time></trkpt><trkpt lat="51.8164172955" lon="-1.7056528386"><ele>125.59</ele><time>2014-04-30T09:05:23Z</time></trkpt><trkpt lat="51.8165625539" lon="-1.7059198860"><ele>124.15</ele><time>2014-04-30T09:05:45Z</time></trkpt><trkpt lat="51.8167455308" lon="-1.7060827464"><ele>124.15</ele><time>2014-04-30T09:06:07Z</time></trkpt><trkpt lat="51.8168233987" lon="-1.7063698266"><ele>124.15</ele><time>2014-04-30T09:06:23Z</time></trkpt><trkpt lat="51.8168719299" lon="-1.7064502928"><ele>123.67</ele><time>2014-04-30T09:06:29Z</time></trkpt><trkpt lat="51.8170541525" lon="-1.7066702340"><ele>124.63</ele><time>2014-04-30T09:06:54Z</time></trkpt><trkpt lat="51.8171954714" lon="-1.7068485171"><ele>125.59</ele><time>2014-04-30T09:07:14Z</time></trkpt><trkpt lat="51.8173797056" lon="-1.7070309911"><ele>125.59</ele><time>2014-04-30T09:07:38Z</time></trkpt><trkpt lat="51.8175645266" lon="-1.7074384354"><ele>125.11</ele><time>2014-04-30T09:07:58Z</time></trkpt><trkpt lat="51.8176617566" lon="-1.7076675128"><ele>125.59</ele><time>2014-04-30T09:08:19Z</time></trkpt><trkpt lat="51.8177511077" lon="-1.7081993446"><ele>125.11</ele><time>2014-04-30T09:08:45Z</time></trkpt><trkpt lat="51.8177773431" lon="-1.7085791286"><ele>125.11</ele><time>2014-04-30T09:09:08Z</time></trkpt><trkpt lat="51.8178255390" lon="-1.7090119701"><ele>125.11</ele><time>2014-04-30T09:09:33Z</time></trkpt><trkpt lat="51.8178630900" lon="-1.7094861344"><ele>125.59</ele><time>2014-04-30T09:09:57Z</time></trkpt><trkpt lat="51.8178600725" lon="-1.7096584663"><ele>126.07</ele><time>2014-04-30T09:10:17Z</time></trkpt><trkpt lat="51.8178039975" lon="-1.7101493105"><ele>127.03</ele><time>2014-04-30T09:10:40Z</time></trkpt><trkpt lat="51.8178656045" lon="-1.7103658151"><ele>126.55</ele><time>2014-04-30T09:11:01Z</time></trkpt><trkpt lat="51.8178487569" lon="-1.7104373127"><ele>126.55</ele><time>2014-04-30T09:11:20Z</time></trkpt><trkpt lat="51.8177770078" lon="-1.7105685733"><ele>127.03</ele><time>2014-04-30T09:11:37Z</time></trkpt><trkpt lat="51.8176905904" lon="-1.7108326033"><ele>126.55</ele><time>2014-04-30T09:12:01Z</time></trkpt><trkpt lat="51.8177672848" lon="-1.7110670451"><ele>126.55</ele><time>2014-04-30T09:12:21Z</time></trkpt><trkpt lat="51.8177713081" lon="-1.7113263812"><ele>126.55</ele><time>2014-04-30T09:12:33Z</time></trkpt><trkpt lat="51.8177872337" lon="-1.7114403751"><ele>126.55</ele><time>2014-04-30T09:12:37Z</time></trkpt><trkpt lat="51.8178438954" lon="-1.7117384356"><ele>125.59</ele><time>2014-04-30T09:12:59Z</time></trkpt><trkpt lat="51.8178065121" lon="-1.7121495679"><ele>125.59</ele><time>2014-04-30T09:13:23Z</time></trkpt><trkpt lat="51.8178281374" lon="-1.7125270050"><ele>126.07</ele><time>2014-04-30T09:13:45Z</time></trkpt><trkpt lat="51.8178647663" lon="-1.7127992492"><ele>127.99</ele><time>2014-04-30T09:14:03Z</time></trkpt><trkpt lat="51.8178961985" lon="-1.7128507141"><ele>127.99</ele><time>2014-04-30T09:14:08Z</time></trkpt><trkpt lat="51.8179440591" lon="-1.7132488545"><ele>129.92</ele><time>2014-04-30T09:14:31Z</time></trkpt><trkpt lat="51.8179271277" lon="-1.7134342622"><ele>131.36</ele><time>2014-04-30T09:14:52Z</time></trkpt><trkpt lat="51.8175764289" lon="-1.7137656827"><ele>132.80</ele><time>2014-04-30T09:15:12Z</time></trkpt><trkpt lat="51.8174183462" lon="-1.7139644176"><ele>133.76</ele><time>2014-04-30T09:15:31Z</time></trkpt><trkpt lat="51.8172966409" lon="-1.7141830176"><ele>133.28</ele><time>2014-04-30T09:15:35Z</time></trkpt><trkpt lat="51.8173680548" lon="-1.7145018652"><ele>133.76</ele><time>2014-04-30T09:15:58Z</time></trkpt><trkpt lat="51.8173636124" lon="-1.7148337886"><ele>133.28</ele><time>2014-04-30T09:16:19Z</time></trkpt><trkpt lat="51.8173651211" lon="-1.7152405623"><ele>132.32</ele><time>2014-04-30T09:16:43Z</time></trkpt><trkpt lat="51.8173177633" lon="-1.7155800294"><ele>130.88</ele><time>2014-04-30T09:17:01Z</time></trkpt><trkpt lat="51.8172108103" lon="-1.7159705423"><ele>129.92</ele><time>2014-04-30T09:17:24Z</time></trkpt><trkpt lat="51.8171232194" lon="-1.7162939999"><ele>129.92</ele><time>2014-04-30T09:17:46Z</time></trkpt><trkpt lat="51.8171228841" lon="-1.7163566127"><ele>129.92</ele><time>2014-04-30T09:17:49Z</time></trkpt><trkpt lat="51.8170197867" lon="-1.7168029491"><ele>129.92</ele><time>2014-04-30T09:18:16Z</time></trkpt><trkpt lat="51.8169919588" lon="-1.7169370595"><ele>130.40</ele><time>2014-04-30T09:18:24Z</time></trkpt><trkpt lat="51.8169666454" lon="-1.7169690784"><ele>129.92</ele><time>2014-04-30T09:18:43Z</time></trkpt><trkpt lat="51.8169705849" lon="-1.7171276640"><ele>130.40</ele><time>2014-04-30T09:18:53Z</time></trkpt><trkpt lat="51.8169603590" lon="-1.7171684839"><ele>129.92</ele><time>2014-04-30T09:18:55Z</time></trkpt><trkpt lat="51.8169254065" lon="-1.7172736768"><ele>129.92</ele><time>2014-04-30T09:18:59Z</time></trkpt><trkpt lat="51.8168891966" lon="-1.7176594120"><ele>130.40</ele><time>2014-04-30T09:19:23Z</time></trkpt><trkpt lat="51.8168051261" lon="-1.7180261202"><ele>131.84</ele><time>2014-04-30T09:19:44Z</time></trkpt><trkpt lat="51.8167551700" lon="-1.7183220014"><ele>131.84</ele><time>2014-04-30T09:20:01Z</time></trkpt><trkpt lat="51.8167617079" lon="-1.7183888890"><ele>132.80</ele><time>2014-04-30T09:20:07Z</time></trkpt><trkpt lat="51.8166591134" lon="-1.7186142784"><ele>134.24</ele><time>2014-04-30T09:20:29Z</time></trkpt><trkpt lat="51.8166062236" lon="-1.7186828423"><ele>134.72</ele><time>2014-04-30T09:20:36Z</time></trkpt><trkpt lat="51.8164981809" lon="-1.7189411726"><ele>136.64</ele><time>2014-04-30T09:20:57Z</time></trkpt><trkpt lat="51.8163801637" lon="-1.7191333696"><ele>138.09</ele><time>2014-04-30T09:21:15Z</time></trkpt><trkpt lat="51.8162172195" lon="-1.7194311786"><ele>139.53</ele><time>2014-04-30T09:21:36Z</time></trkpt><trkpt lat="51.8161329813" lon="-1.7196626030"><ele>141.93</ele><time>2014-04-30T09:21:59Z</time></trkpt><trkpt lat="51.8160417024" lon="-1.7199503537"><ele>142.41</ele><time>2014-04-30T09:22:17Z</time></trkpt><trkpt lat="51.8160199095" lon="-1.7202710453"><ele>143.37</ele><time>2014-04-30T09:22:36Z</time></trkpt><trkpt lat="51.8160448875" lon="-1.7204797547"><ele>143.85</ele><time>2014-04-30T09:22:49Z</time></trkpt><trkpt lat="51.8160536047" lon="-1.7205952574"><ele>143.85</ele><time>2014-04-30T09:22:56Z</time></trkpt><trkpt lat="51.8160325661" lon="-1.7209182121"><ele>144.82</ele><time>2014-04-30T09:23:14Z</time></trkpt><trkpt lat="51.8160631601" lon="-1.7211717647"><ele>144.82</ele><time>2014-04-30T09:23:31Z</time></trkpt><trkpt lat="51.8160865456" lon="-1.7213560827"><ele>144.34</ele><time>2014-04-30T09:23:47Z</time></trkpt><trkpt lat="51.8161212467" lon="-1.7215275764"><ele>143.85</ele><time>2014-04-30T09:24:02Z</time></trkpt><trkpt lat="51.8161966000" lon="-1.7216967233"><ele>142.41</ele><time>2014-04-30T09:24:21Z</time></trkpt><trkpt lat="51.8163782358" lon="-1.7219075281"><ele>138.57</ele><time>2014-04-30T09:24:42Z</time></trkpt><trkpt lat="51.8163837679" lon="-1.7219135631"><ele>142.41</ele><time>2014-04-30T09:24:43Z</time></trkpt><trkpt lat="51.8164027948" lon="-1.7219216097"><ele>140.97</ele><time>2014-04-30T09:24:45Z</time></trkpt><trkpt lat="51.8165541720" lon="-1.7221848015"><ele>140.01</ele><time>2014-04-30T09:25:11Z</time></trkpt><trkpt lat="51.8166737817" lon="-1.7223411240"><ele>138.09</ele><time>2014-04-30T09:25:31Z</time></trkpt><trkpt lat="51.8168476224" lon="-1.7224834487"><ele>136.64</ele><time>2014-04-30T09:25:54Z</time></trkpt><trkpt lat="51.8168764561" lon="-1.7225029785"><ele>136.64</ele><time>2014-04-30T09:25:59Z</time></trkpt><trkpt lat="51.8169873487" lon="-1.7226723768"><ele>136.16</ele><time>2014-04-30T09:26:21Z</time></trkpt><trkpt lat="51.8170285039" lon="-1.7228847742"><ele>137.13</ele><time>2014-04-30T09:26:40Z</time></trkpt><trkpt lat="51.8171067070" lon="-1.7228450440"><ele>136.16</ele><time>2014-04-30T09:27:00Z</time></trkpt><trkpt lat="51.8171212077" lon="-1.7228212394"><ele>139.53</ele><time>2014-04-30T09:27:05Z</time></trkpt><trkpt lat="51.8171253148" lon="-1.7228159588"><ele>135.68</ele><time>2014-04-30T09:27:06Z</time></trkpt><trkpt lat="51.8171087187" lon="-1.7228825949"><ele>136.16</ele><time>2014-04-30T09:27:23Z</time></trkpt><trkpt lat="51.8171087187" lon="-1.7228877917"><ele>136.64</ele><time>2014-04-30T09:27:49Z</time></trkpt><trkpt lat="51.8171149213" lon="-1.7229062319"><ele>136.16</ele><time>2014-04-30T09:28:17Z</time></trkpt><trkpt lat="51.8171184417" lon="-1.7230416834"><ele>136.16</ele><time>2014-04-30T09:28:25Z</time></trkpt><trkpt lat="51.8171965610" lon="-1.7233780492"><ele>136.16</ele><time>2014-04-30T09:28:46Z</time></trkpt><trkpt lat="51.8172384705" lon="-1.7236510478"><ele>135.20</ele><time>2014-04-30T09:29:05Z</time></trkpt><trkpt lat="51.8172344472" lon="-1.7236877605"><ele>136.16</ele><time>2014-04-30T09:29:07Z</time></trkpt><trkpt lat="51.8172407337" lon="-1.7239737511"><ele>134.72</ele><time>2014-04-30T09:29:23Z</time></trkpt><trkpt lat="51.8172753509" lon="-1.7242616694"><ele>134.72</ele><time>2014-04-30T09:29:43Z</time></trkpt><trkpt lat="51.8173163384" lon="-1.7245293036"><ele>134.24</ele><time>2014-04-30T09:30:06Z</time></trkpt><trkpt lat="51.8173206970" lon="-1.7245713808"><ele>134.24</ele><time>2014-04-30T09:30:09Z</time></trkpt><trkpt lat="51.8175138999" lon="-1.7248395178"><ele>133.28</ele><time>2014-04-30T09:30:30Z</time></trkpt><trkpt lat="51.8175895885" lon="-1.7250711937"><ele>134.24</ele><time>2014-04-30T09:30:48Z</time></trkpt><trkpt lat="51.8177134730" lon="-1.7253281828"><ele>132.80</ele><time>2014-04-30T09:31:10Z</time></trkpt><trkpt lat="51.8178548757" lon="-1.7255858425"><ele>133.28</ele><time>2014-04-30T09:31:29Z</time></trkpt><trkpt lat="51.8180170655" lon="-1.7257911991"><ele>134.72</ele><time>2014-04-30T09:31:50Z</time></trkpt><trkpt lat="51.8181961030" lon="-1.7258063704"><ele>136.16</ele><time>2014-04-30T09:32:07Z</time></trkpt><trkpt lat="51.8182976916" lon="-1.7256179452"><ele>137.13</ele><time>2014-04-30T09:32:27Z</time></trkpt><trkpt lat="51.8183157127" lon="-1.7255622894"><ele>135.68</ele><time>2014-04-30T09:32:43Z</time></trkpt><trkpt lat="51.8183221668" lon="-1.7255948950"><ele>135.68</ele><time>2014-04-30T09:33:05Z</time></trkpt><trkpt lat="51.8184152059" lon="-1.7254159413"><ele>135.20</ele><time>2014-04-30T09:33:24Z</time></trkpt><trkpt lat="51.8184733763" lon="-1.7253286857"><ele>135.68</ele><time>2014-04-30T09:33:32Z</time></trkpt><trkpt lat="51.8186996039" lon="-1.7250513285"><ele>133.28</ele><time>2014-04-30T09:33:52Z</time></trkpt><trkpt lat="51.8188974168" lon="-1.7249043100"><ele>132.32</ele><time>2014-04-30T09:34:09Z</time></trkpt><trkpt lat="51.8189710099" lon="-1.7248061579"><ele>132.32</ele><time>2014-04-30T09:34:19Z</time></trkpt><trkpt lat="51.8190088123" lon="-1.7246068362"><ele>131.84</ele><time>2014-04-30T09:34:32Z</time></trkpt><trkpt lat="51.8191138376" lon="-1.7244650982"><ele>130.88</ele><time>2014-04-30T09:34:47Z</time></trkpt><trkpt lat="51.8191759475" lon="-1.7243990488"><ele>130.88</ele><time>2014-04-30T09:34:56Z</time></trkpt><trkpt lat="51.8192929588" lon="-1.7242434807"><ele>129.43</ele><time>2014-04-30T09:35:10Z</time></trkpt><trkpt lat="51.8193896860" lon="-1.7240962107"><ele>128.95</ele><time>2014-04-30T09:35:25Z</time></trkpt><trkpt lat="51.8194845691" lon="-1.7239711527"><ele>127.99</ele><time>2014-04-30T09:35:38Z</time></trkpt><trkpt lat="51.8195552286" lon="-1.7238177639"><ele>126.55</ele><time>2014-04-30T09:35:52Z</time></trkpt><trkpt lat="51.8197284825" lon="-1.7236059532"><ele>125.59</ele><time>2014-04-30T09:36:13Z</time></trkpt><trkpt lat="51.8197943643" lon="-1.7233930528"><ele>124.15</ele><time>2014-04-30T09:36:34Z</time></trkpt><trkpt lat="51.8199190032" lon="-1.7231773864"><ele>122.71</ele><time>2014-04-30T09:36:56Z</time></trkpt><trkpt lat="51.8200214300" lon="-1.7229233310"><ele>119.82</ele><time>2014-04-30T09:37:16Z</time></trkpt><trkpt lat="51.8200265430" lon="-1.7229035497"><ele>119.34</ele><time>2014-04-30T09:37:17Z</time></trkpt><trkpt lat="51.8200534489" lon="-1.7225606460"><ele>118.38</ele><time>2014-04-30T09:37:37Z</time></trkpt><trkpt lat="51.8200782593" lon="-1.7224862147"><ele>116.94</ele><time>2014-04-30T09:37:55Z</time></trkpt><trkpt lat="51.8200820312" lon="-1.7225116119"><ele>116.94</ele><time>2014-04-30T09:38:12Z</time></trkpt><trkpt lat="51.8201497570" lon="-1.7224834487"><ele>115.50</ele><time>2014-04-30T09:38:29Z</time></trkpt><trkpt lat="51.8202595599" lon="-1.7224009708"><ele>115.50</ele><time>2014-04-30T09:38:45Z</time></trkpt><trkpt lat="51.8202946801" lon="-1.7225789186"><ele>116.94</ele><time>2014-04-30T09:39:04Z</time></trkpt><trkpt lat="51.8203242682" lon="-1.7226273660"><ele>116.94</ele><time>2014-04-30T09:39:13Z</time></trkpt><trkpt lat="51.8203713745" lon="-1.7227577046"><ele>117.42</ele><time>2014-04-30T09:39:31Z</time></trkpt><trkpt lat="51.8203789182" lon="-1.7228277773"><ele>117.90</ele><time>2014-04-30T09:39:50Z</time></trkpt><trkpt lat="51.8203961011" lon="-1.7228226643"><ele>117.42</ele><time>2014-04-30T09:40:09Z</time></trkpt><trkpt lat="51.8203659263" lon="-1.7228555214"><ele>117.42</ele><time>2014-04-30T09:40:32Z</time></trkpt><trkpt lat="51.8203878868" lon="-1.7228301242"><ele>117.42</ele><time>2014-04-30T09:40:46Z</time></trkpt><trkpt lat="51.8203843664" lon="-1.7228397634"><ele>117.42</ele><time>2014-04-30T09:41:07Z</time></trkpt><trkpt lat="51.8204312213" lon="-1.7228201497"><ele>117.42</ele><time>2014-04-30T09:41:31Z</time></trkpt><trkpt lat="51.8205052335" lon="-1.7229860276"><ele>115.50</ele><time>2014-04-30T09:41:48Z</time></trkpt><trkpt lat="51.8206478097" lon="-1.7231750395"><ele>115.50</ele><time>2014-04-30T09:42:10Z</time></trkpt><trkpt lat="51.8206971791" lon="-1.7232086509"><ele>115.50</ele><time>2014-04-30T09:42:14Z</time></trkpt><trkpt lat="51.8207935710" lon="-1.7233087309"><ele>115.01</ele><time>2014-04-30T09:42:35Z</time></trkpt><trkpt lat="51.8208370730" lon="-1.7232529074"><ele>115.01</ele><time>2014-04-30T09:42:52Z</time></trkpt><trkpt lat="51.8209375720" lon="-1.7230043840"><ele>114.05</ele><time>2014-04-30T09:43:13Z</time></trkpt><trkpt lat="51.8209850974" lon="-1.7227551900"><ele>114.53</ele><time>2014-04-30T09:43:36Z</time></trkpt><trkpt lat="51.8209553417" lon="-1.7224492505"><ele>114.05</ele><time>2014-04-30T09:43:56Z</time></trkpt><trkpt lat="51.8209314533" lon="-1.7222853005"><ele>114.53</ele><time>2014-04-30T09:44:19Z</time></trkpt><trkpt lat="51.8209251668" lon="-1.7222686205"><ele>114.53</ele><time>2014-04-30T09:44:42Z</time></trkpt><trkpt lat="51.8209508993" lon="-1.7222471628"><ele>114.05</ele><time>2014-04-30T09:45:02Z</time></trkpt><trkpt lat="51.8209893722" lon="-1.7221924290"><ele>114.53</ele><time>2014-04-30T09:45:12Z</time></trkpt><trkpt lat="51.8210485484" lon="-1.7221827898"><ele>114.53</ele><time>2014-04-30T09:45:16Z</time></trkpt><trkpt lat="51.8212149292" lon="-1.7221992183"><ele>114.53</ele><time>2014-04-30T09:45:33Z</time></trkpt><trkpt lat="51.8213046156" lon="-1.7222013138"><ele>114.53</ele><time>2014-04-30T09:45:42Z</time></trkpt><trkpt lat="51.8213224690" lon="-1.7222055048"><ele>114.05</ele><time>2014-04-30T09:45:44Z</time></trkpt><trkpt lat="51.8215137441" lon="-1.7222013138"><ele>114.05</ele><time>2014-04-30T09:46:01Z</time></trkpt><trkpt lat="51.8216578290" lon="-1.7222178262"><ele>118.86</ele><time>2014-04-30T09:46:14Z</time></trkpt><trkpt lat="51.8216686416" lon="-1.7222151440"><ele>115.98</ele><time>2014-04-30T09:46:15Z</time></trkpt><trkpt lat="51.8216853216" lon="-1.7222062591"><ele>114.05</ele><time>2014-04-30T09:46:17Z</time></trkpt><trkpt lat="51.8217412289" lon="-1.7221993860"><ele>114.05</ele><time>2014-04-30T09:46:22Z</time></trkpt><trkpt lat="51.8218332622" lon="-1.7222057562"><ele>114.05</ele><time>2014-04-30T09:46:32Z</time></trkpt><trkpt lat="51.8219102081" lon="-1.7222143896"><ele>114.05</ele><time>2014-04-30T09:46:42Z</time></trkpt><trkpt lat="51.8219225295" lon="-1.7222192511"><ele>114.53</ele><time>2014-04-30T09:46:50Z</time></trkpt><trkpt lat="51.8220003974" lon="-1.7222337518"><ele>114.05</ele><time>2014-04-30T09:46:58Z</time></trkpt><trkpt lat="51.8220806960" lon="-1.7221989669"><ele>113.57</ele><time>2014-04-30T09:47:08Z</time></trkpt><trkpt lat="51.8221789319" lon="-1.7221991345"><ele>113.57</ele><time>2014-04-30T09:47:16Z</time></trkpt><trkpt lat="51.8222811073" lon="-1.7222218495"><ele>114.05</ele><time>2014-04-30T09:47:27Z</time></trkpt><trkpt lat="51.8223230168" lon="-1.7222246993"><ele>113.57</ele><time>2014-04-30T09:47:32Z</time></trkpt><trkpt lat="51.8225541059" lon="-1.7222195026"><ele>114.05</ele><time>2014-04-30T09:47:51Z</time></trkpt><trkpt lat="51.8227697723" lon="-1.7222426366"><ele>114.05</ele><time>2014-04-30T09:48:10Z</time></trkpt><trkpt lat="51.8228887115" lon="-1.7222627532"><ele>107.32</ele><time>2014-04-30T09:48:26Z</time></trkpt><trkpt lat="51.8228944950" lon="-1.7222599033"><ele>115.50</ele><time>2014-04-30T09:48:27Z</time></trkpt><trkpt lat="51.8229017872" lon="-1.7222561315"><ele>110.21</ele><time>2014-04-30T09:48:32Z</time></trkpt><trkpt lat="51.8229014520" lon="-1.7222554609"><ele>113.57</ele><time>2014-04-30T09:48:33Z</time></trkpt><trkpt lat="51.8229616340" lon="-1.7222834565"><ele>114.05</ele><time>2014-04-30T09:48:54Z</time></trkpt><trkpt lat="51.8230564333" lon="-1.7222841270"><ele>113.57</ele><time>2014-04-30T09:49:11Z</time></trkpt><trkpt lat="51.8232233170" lon="-1.7223656829"><ele>114.05</ele><time>2014-04-30T09:49:31Z</time></trkpt><trkpt lat="51.8233780470" lon="-1.7223718017"><ele>114.05</ele><time>2014-04-30T09:49:49Z</time></trkpt><trkpt lat="51.8235141691" lon="-1.7222770024"><ele>113.57</ele><time>2014-04-30T09:50:09Z</time></trkpt><trkpt lat="51.8235269096" lon="-1.7222843785"><ele>113.57</ele><time>2014-04-30T09:50:34Z</time></trkpt><trkpt lat="51.8234857544" lon="-1.7222720571"><ele>114.53</ele><time>2014-04-30T09:50:50Z</time></trkpt><trkpt lat="51.8234436773" lon="-1.7222716380"><ele>114.53</ele><time>2014-04-30T09:51:11Z</time></trkpt><trkpt lat="51.8234729301" lon="-1.7222621664"><ele>113.57</ele><time>2014-04-30T09:51:28Z</time></trkpt><trkpt lat="51.8235033564" lon="-1.7222492583"><ele>114.05</ele><time>2014-04-30T09:51:31Z</time></trkpt><trkpt lat="51.8235046137" lon="-1.7220614199"><ele>115.01</ele><time>2014-04-30T09:51:50Z</time></trkpt><trkpt lat="51.8235094752" lon="-1.7218886688"><ele>117.90</ele><time>2014-04-30T09:52:04Z</time></trkpt><trkpt lat="51.8237107247" lon="-1.7217108048"><ele>119.82</ele><time>2014-04-30T09:52:24Z</time></trkpt><trkpt lat="51.8238275684" lon="-1.7214854155"><ele>121.74</ele><time>2014-04-30T09:52:42Z</time></trkpt><trkpt lat="51.8240021635" lon="-1.7212518957"><ele>122.71</ele><time>2014-04-30T09:53:01Z</time></trkpt><trkpt lat="51.8240542989" lon="-1.7210056353"><ele>124.63</ele><time>2014-04-30T09:53:19Z</time></trkpt><trkpt lat="51.8241227791" lon="-1.7207985185"><ele>124.15</ele><time>2014-04-30T09:53:33Z</time></trkpt><trkpt lat="51.8241949473" lon="-1.7205634899"><ele>124.63</ele><time>2014-04-30T09:53:50Z</time></trkpt><trkpt lat="51.8242543750" lon="-1.7203127034"><ele>125.11</ele><time>2014-04-30T09:54:08Z</time></trkpt><trkpt lat="51.8243081868" lon="-1.7201317381"><ele>126.07</ele><time>2014-04-30T09:54:23Z</time></trkpt><trkpt lat="51.8243494257" lon="-1.7199770920"><ele>126.55</ele><time>2014-04-30T09:54:39Z</time></trkpt><trkpt lat="51.8243889045" lon="-1.7198202666"><ele>126.55</ele><time>2014-04-30T09:54:52Z</time></trkpt><trkpt lat="51.8244091887" lon="-1.7197579052"><ele>127.51</ele><time>2014-04-30T09:54:58Z</time></trkpt><trkpt lat="51.8244712986" lon="-1.7195353657"><ele>127.99</ele><time>2014-04-30T09:55:16Z</time></trkpt><trkpt lat="51.8244813569" lon="-1.7194890138"><ele>128.47</ele><time>2014-04-30T09:55:19Z</time></trkpt><trkpt lat="51.8245430477" lon="-1.7192762811"><ele>128.47</ele><time>2014-04-30T09:55:35Z</time></trkpt><trkpt lat="51.8245707080" lon="-1.7191744410"><ele>129.43</ele><time>2014-04-30T09:55:50Z</time></trkpt><trkpt lat="51.8246894795" lon="-1.7191525642"><ele>127.99</ele><time>2014-04-30T09:56:05Z</time></trkpt><trkpt lat="51.8247227557" lon="-1.7191611137"><ele>128.47</ele><time>2014-04-30T09:56:08Z</time></trkpt><trkpt lat="51.8248647451" lon="-1.7191803083"><ele>127.99</ele><time>2014-04-30T09:56:25Z</time></trkpt><trkpt lat="51.8250281084" lon="-1.7191447690"><ele>128.95</ele><time>2014-04-30T09:56:45Z</time></trkpt><trkpt lat="51.8252540007" lon="-1.7191570904"><ele>127.51</ele><time>2014-04-30T09:57:06Z</time></trkpt><trkpt lat="51.8254169449" lon="-1.7191470321"><ele>127.99</ele><time>2014-04-30T09:57:24Z</time></trkpt><trkpt lat="51.8255912047" lon="-1.7191463616"><ele>127.51</ele><time>2014-04-30T09:57:43Z</time></trkpt><trkpt lat="51.8257455155" lon="-1.7191593535"><ele>126.55</ele><time>2014-04-30T09:58:00Z</time></trkpt><trkpt lat="51.8258903548" lon="-1.7191424221"><ele>127.99</ele><time>2014-04-30T09:58:21Z</time></trkpt><trkpt lat="51.8258999940" lon="-1.7191430926"><ele>126.55</ele><time>2014-04-30T09:58:23Z</time></trkpt><trkpt lat="51.8259538058" lon="-1.7191411648"><ele>127.03</ele><time>2014-04-30T09:58:27Z</time></trkpt><trkpt lat="51.8261470925" lon="-1.7191479541"><ele>127.51</ele><time>2014-04-30T09:58:47Z</time></trkpt><trkpt lat="51.8263014872" lon="-1.7191505525"><ele>127.03</ele><time>2014-04-30T09:59:05Z</time></trkpt><trkpt lat="51.8264395371" lon="-1.7191431765"><ele>127.99</ele><time>2014-04-30T09:59:24Z</time></trkpt><trkpt lat="51.8266225979" lon="-1.7191597726"><ele>128.47</ele><time>2014-04-30T09:59:41Z</time></trkpt><trkpt lat="51.8268091790" lon="-1.7191649694"><ele>128.47</ele><time>2014-04-30T10:00:00Z</time></trkpt><trkpt lat="51.8269928265" lon="-1.7191433441"><ele>128.95</ele><time>2014-04-30T10:00:18Z</time></trkpt><trkpt lat="51.8271568604" lon="-1.7191557493"><ele>127.99</ele><time>2014-04-30T10:00:36Z</time></trkpt><trkpt lat="51.8273634743" lon="-1.7191433441"><ele>127.51</ele><time>2014-04-30T10:00:58Z</time></trkpt><trkpt lat="51.8275006022" lon="-1.7191135883"><ele>127.03</ele><time>2014-04-30T10:01:19Z</time></trkpt><trkpt lat="51.8275206350" lon="-1.7191301007"><ele>127.99</ele><time>2014-04-30T10:01:25Z</time></trkpt><trkpt lat="51.8276261631" lon="-1.7191321962"><ele>127.51</ele><time>2014-04-30T10:01:38Z</time></trkpt><trkpt lat="51.8276945595" lon="-1.7191446852"><ele>126.55</ele><time>2014-04-30T10:01:56Z</time></trkpt><trkpt lat="51.8277313560" lon="-1.7191600241"><ele>127.51</ele><time>2014-04-30T10:02:12Z</time></trkpt><trkpt lat="51.8277330324" lon="-1.7191624548"><ele>125.59</ele><time>2014-04-30T10:02:25Z</time></trkpt><trkpt lat="51.8277875986" lon="-1.7191553302"><ele>127.51</ele><time>2014-04-30T10:02:28Z</time></trkpt><trkpt lat="51.8279762752" lon="-1.7190840002"><ele>126.07</ele><time>2014-04-30T10:02:37Z</time></trkpt><trkpt lat="51.8280740920" lon="-1.7190518137"><ele>127.03</ele><time>2014-04-30T10:02:56Z</time></trkpt><trkpt lat="51.8281517923" lon="-1.7190305237"><ele>127.03</ele><time>2014-04-30T10:03:22Z</time></trkpt><trkpt lat="51.8281711545" lon="-1.7190234829"><ele>126.07</ele><time>2014-04-30T10:03:24Z</time></trkpt><trkpt lat="51.8281931989" lon="-1.7190163583"><ele>127.03</ele><time>2014-04-30T10:03:26Z</time></trkpt><trkpt lat="51.8282759283" lon="-1.7189655639"><ele>126.55</ele><time>2014-04-30T10:03:45Z</time></trkpt><trkpt lat="51.8282517046" lon="-1.7188866902"><ele>126.55</ele><time>2014-04-30T10:04:06Z</time></trkpt><trkpt lat="51.8282516208" lon="-1.7188673280"><ele>127.51</ele><time>2014-04-30T10:04:31Z</time></trkpt><trkpt lat="51.8282464240" lon="-1.7188593652"><ele>127.99</ele><time>2014-04-30T10:04:59Z</time></trkpt><trkpt lat="51.8282460049" lon="-1.7188534141"><ele>127.51</ele><time>2014-04-30T10:05:27Z</time></trkpt><trkpt lat="51.8282439932" lon="-1.7188357282"><ele>127.99</ele><time>2014-04-30T10:05:56Z</time></trkpt><trkpt lat="51.8282646965" lon="-1.7189207207"><ele>126.55</ele><time>2014-04-30T10:06:19Z</time></trkpt><trkpt lat="51.8284024950" lon="-1.7189277615"><ele>128.47</ele><time>2014-04-30T10:06:34Z</time></trkpt><trkpt lat="51.8285335042" lon="-1.7189826630"><ele>127.99</ele><time>2014-04-30T10:06:51Z</time></trkpt><trkpt lat="51.8285208475" lon="-1.7189845908"><ele>127.03</ele><time>2014-04-30T10:07:15Z</time></trkpt><trkpt lat="51.8285228591" lon="-1.7189622112"><ele>127.51</ele><time>2014-04-30T10:07:39Z</time></trkpt><trkpt lat="51.8285236973" lon="-1.7189614568"><ele>127.03</ele><time>2014-04-30T10:08:06Z</time></trkpt><trkpt lat="51.8285246193" lon="-1.7189619597"><ele>127.51</ele><time>2014-04-30T10:08:39Z</time></trkpt><trkpt lat="51.8285223562" lon="-1.7189659830"><ele>127.03</ele><time>2014-04-30T10:09:08Z</time></trkpt><trkpt lat="51.8285216857" lon="-1.7189680785"><ele>127.51</ele><time>2014-04-30T10:09:36Z</time></trkpt><trkpt lat="51.8285193387" lon="-1.7189683300"><ele>127.99</ele><time>2014-04-30T10:09:58Z</time></trkpt><trkpt lat="51.8285119627" lon="-1.7189831659"><ele>127.51</ele><time>2014-04-30T10:10:28Z</time></trkpt><trkpt lat="51.8285158183" lon="-1.7189771309"><ele>127.51</ele><time>2014-04-30T10:10:59Z</time></trkpt><trkpt lat="51.8285178300" lon="-1.7189677432"><ele>127.51</ele><time>2014-04-30T10:11:19Z</time></trkpt><trkpt lat="51.8285222724" lon="-1.7189710122"><ele>127.51</ele><time>2014-04-30T10:11:46Z</time></trkpt><trkpt lat="51.8285557162" lon="-1.7189657316"><ele>127.03</ele><time>2014-04-30T10:12:08Z</time></trkpt><trkpt lat="51.8285586499" lon="-1.7189596128"><ele>127.51</ele><time>2014-04-30T10:12:29Z</time></trkpt><trkpt lat="51.8285548780" lon="-1.7189580202"><ele>127.99</ele><time>2014-04-30T10:12:52Z</time></trkpt><trkpt lat="51.8285513576" lon="-1.7189590260"><ele>127.99</ele><time>2014-04-30T10:13:19Z</time></trkpt><trkpt lat="51.8285529502" lon="-1.7189550027"><ele>127.51</ele><time>2014-04-30T10:13:41Z</time></trkpt><trkpt lat="51.8285519443" lon="-1.7189556733"><ele>127.99</ele><time>2014-04-30T10:14:07Z</time></trkpt><trkpt lat="51.8285514414" lon="-1.7189530749"><ele>127.99</ele><time>2014-04-30T10:14:34Z</time></trkpt><trkpt lat="51.8285496812" lon="-1.7189529072"><ele>127.99</ele><time>2014-04-30T10:15:04Z</time></trkpt><trkpt lat="51.8285495136" lon="-1.7189579364"><ele>128.95</ele><time>2014-04-30T10:15:27Z</time></trkpt><trkpt lat="51.8285490107" lon="-1.7189591099"><ele>123.67</ele><time>2014-04-30T10:15:31Z</time></trkpt><trkpt lat="51.8285437301" lon="-1.7189650610"><ele>126.55</ele><time>2014-04-30T10:15:32Z</time></trkpt><trkpt lat="51.8285376951" lon="-1.7189716827"><ele>129.92</ele><time>2014-04-30T10:15:33Z</time></trkpt><trkpt lat="51.8285309896" lon="-1.7189774662"><ele>127.51</ele><time>2014-04-30T10:15:34Z</time></trkpt><trkpt lat="51.8284817878" lon="-1.7190140113"><ele>127.99</ele><time>2014-04-30T10:15:58Z</time></trkpt><trkpt lat="51.8285516091" lon="-1.7189555056"><ele>127.99</ele><time>2014-04-30T10:16:16Z</time></trkpt><trkpt lat="51.8286202569" lon="-1.7189254984"><ele>127.99</ele><time>2014-04-30T10:16:31Z</time></trkpt><trkpt lat="51.8286547903" lon="-1.7189533263"><ele>127.99</ele><time>2014-04-30T10:16:36Z</time></trkpt><trkpt lat="51.8287252821" lon="-1.7189427651"><ele>126.55</ele><time>2014-04-30T10:16:45Z</time></trkpt><trkpt lat="51.8288185727" lon="-1.7187672481"><ele>128.47</ele><time>2014-04-30T10:17:01Z</time></trkpt><trkpt lat="51.8288712949" lon="-1.7187469639"><ele>127.99</ele><time>2014-04-30T10:17:10Z</time></trkpt><trkpt lat="51.8290402740" lon="-1.7188715190"><ele>127.99</ele><time>2014-04-30T10:17:34Z</time></trkpt><trkpt lat="51.8290174752" lon="-1.7189456150"><ele>127.03</ele><time>2014-04-30T10:17:52Z</time></trkpt><trkpt lat="51.8290034775" lon="-1.7189286835"><ele>129.43</ele><time>2014-04-30T10:17:54Z</time></trkpt><trkpt lat="51.8289867137" lon="-1.7189191282"><ele>126.55</ele><time>2014-04-30T10:17:56Z</time></trkpt><trkpt lat="51.8289708719" lon="-1.7189700063"><ele>128.95</ele><time>2014-04-30T10:18:14Z</time></trkpt><trkpt lat="51.8290733825" lon="-1.7189586908"><ele>128.47</ele><time>2014-04-30T10:18:30Z</time></trkpt><trkpt lat="51.8292469718" lon="-1.7189612892"><ele>128.47</ele><time>2014-04-30T10:18:51Z</time></trkpt><trkpt lat="51.8292799126" lon="-1.7189851776"><ele>128.47</ele><time>2014-04-30T10:18:59Z</time></trkpt><trkpt lat="51.8294918071" lon="-1.7190611176"><ele>129.43</ele><time>2014-04-30T10:19:17Z</time></trkpt><trkpt lat="51.8295252509" lon="-1.7190755345"><ele>127.51</ele><time>2014-04-30T10:19:20Z</time></trkpt><trkpt lat="51.8297819048" lon="-1.7191880196"><ele>127.99</ele><time>2014-04-30T10:19:41Z</time></trkpt><trkpt lat="51.8298742734" lon="-1.7192049511"><ele>127.51</ele><time>2014-04-30T10:20:02Z</time></trkpt><trkpt lat="51.8301243056" lon="-1.7192952242"><ele>128.47</ele><time>2014-04-30T10:20:23Z</time></trkpt><trkpt lat="51.8303510360" lon="-1.7193075456"><ele>127.99</ele><time>2014-04-30T10:20:41Z</time></trkpt><trkpt lat="51.8304835539" lon="-1.7193359602"><ele>126.55</ele><time>2014-04-30T10:20:52Z</time></trkpt><trkpt lat="51.8306786008" lon="-1.7193965614"><ele>127.03</ele><time>2014-04-30T10:21:11Z</time></trkpt><trkpt lat="51.8309243582" lon="-1.7194485292"><ele>125.59</ele><time>2014-04-30T10:21:32Z</time></trkpt><trkpt lat="51.8311680201" lon="-1.7196424864"><ele>123.67</ele><time>2014-04-30T10:21:54Z</time></trkpt><trkpt lat="51.8312800862" lon="-1.7197997309"><ele>120.30</ele><time>2014-04-30T10:22:08Z</time></trkpt><trkpt lat="51.8314116821" lon="-1.7199021578"><ele>118.86</ele><time>2014-04-30T10:22:25Z</time></trkpt><trkpt lat="51.8315958325" lon="-1.7199922632"><ele>117.42</ele><time>2014-04-30T10:22:45Z</time></trkpt><trkpt lat="51.8316866923" lon="-1.7199992202"><ele>116.94</ele><time>2014-04-30T10:22:53Z</time></trkpt><trkpt lat="51.8317099940" lon="-1.7200009804"><ele>117.42</ele><time>2014-04-30T10:22:55Z</time></trkpt><trkpt lat="51.8317428511" lon="-1.7199898325"><ele>117.90</ele><time>2014-04-30T10:22:57Z</time></trkpt><trkpt lat="51.8317973334" lon="-1.7200278025"><ele>117.42</ele><time>2014-04-30T10:23:04Z</time></trkpt><trkpt lat="51.8319496326" lon="-1.7200661916"><ele>117.42</ele><time>2014-04-30T10:23:20Z</time></trkpt><trkpt lat="51.8320126645" lon="-1.7200828716"><ele>117.42</ele><time>2014-04-30T10:23:39Z</time></trkpt><trkpt lat="51.8321324419" lon="-1.7201343365"><ele>116.46</ele><time>2014-04-30T10:23:59Z</time></trkpt><trkpt lat="51.8321983237" lon="-1.7201212607"><ele>119.82</ele><time>2014-04-30T10:24:09Z</time></trkpt><trkpt lat="51.8322963919" lon="-1.7201414611"><ele>119.82</ele><time>2014-04-30T10:24:28Z</time></trkpt><trkpt lat="51.8324044347" lon="-1.7201549560"><ele>119.82</ele><time>2014-04-30T10:24:47Z</time></trkpt><trkpt lat="51.8324348610" lon="-1.7201606557"><ele>118.86</ele><time>2014-04-30T10:24:54Z</time></trkpt><trkpt lat="51.8324816320" lon="-1.7201761622"><ele>118.86</ele><time>2014-04-30T10:24:58Z</time></trkpt><trkpt lat="51.8325765152" lon="-1.7202076782"><ele>120.30</ele><time>2014-04-30T10:25:16Z</time></trkpt><trkpt lat="51.8327247072" lon="-1.7202267051"><ele>119.34</ele><time>2014-04-30T10:25:35Z</time></trkpt><trkpt lat="51.8327948637" lon="-1.7202455644"><ele>118.86</ele><time>2014-04-30T10:25:58Z</time></trkpt><trkpt lat="51.8329764158" lon="-1.7202833667"><ele>119.34</ele><time>2014-04-30T10:26:16Z</time></trkpt><trkpt lat="51.8331884779" lon="-1.7203509249"><ele>118.86</ele><time>2014-04-30T10:26:37Z</time></trkpt><trkpt lat="51.8334372528" lon="-1.7204017192"><ele>118.38</ele><time>2014-04-30T10:27:00Z</time></trkpt><trkpt lat="51.8334881309" lon="-1.7203272879"><ele>117.90</ele><time>2014-04-30T10:27:18Z</time></trkpt><trkpt lat="51.8336425256" lon="-1.7205000389"><ele>118.38</ele><time>2014-04-30T10:27:38Z</time></trkpt><trkpt lat="51.8338144384" lon="-1.7205708660"><ele>117.90</ele><time>2014-04-30T10:28:01Z</time></trkpt><trkpt lat="51.8339215592" lon="-1.7206056509"><ele>118.38</ele><time>2014-04-30T10:28:13Z</time></trkpt><trkpt lat="51.8339630496" lon="-1.7206312995"><ele>119.82</ele><time>2014-04-30T10:28:19Z</time></trkpt><trkpt lat="51.8340777140" lon="-1.7206219956"><ele>120.30</ele><time>2014-04-30T10:28:35Z</time></trkpt><trkpt lat="51.8342971522" lon="-1.7206485663"><ele>119.82</ele><time>2014-04-30T10:28:56Z</time></trkpt><trkpt lat="51.8344574142" lon="-1.7206801660"><ele>120.30</ele><time>2014-04-30T10:29:16Z</time></trkpt><trkpt lat="51.8346362002" lon="-1.7207167950"><ele>120.78</ele><time>2014-04-30T10:29:36Z</time></trkpt><trkpt lat="51.8347541336" lon="-1.7207271885"><ele>121.74</ele><time>2014-04-30T10:29:50Z</time></trkpt><trkpt lat="51.8349868152" lon="-1.7207564414"><ele>121.74</ele><time>2014-04-30T10:30:11Z</time></trkpt><trkpt lat="51.8351635057" lon="-1.7207944952"><ele>121.26</ele><time>2014-04-30T10:30:31Z</time></trkpt><trkpt lat="51.8351898249" lon="-1.7208102532"><ele>124.63</ele><time>2014-04-30T10:30:36Z</time></trkpt><trkpt lat="51.8352003861" lon="-1.7208193056"><ele>120.30</ele><time>2014-04-30T10:30:38Z</time></trkpt><trkpt lat="51.8352055829" lon="-1.7208207306"><ele>124.63</ele><time>2014-04-30T10:30:39Z</time></trkpt><trkpt lat="51.8354681879" lon="-1.7208141088"><ele>126.07</ele><time>2014-04-30T10:31:02Z</time></trkpt><trkpt lat="51.8354940880" lon="-1.7208099179"><ele>125.11</ele><time>2014-04-30T10:31:04Z</time></trkpt><trkpt lat="51.8355369195" lon="-1.7208235804"><ele>127.99</ele><time>2014-04-30T10:31:09Z</time></trkpt><trkpt lat="51.8355551921" lon="-1.7208260950"><ele>125.11</ele><time>2014-04-30T10:31:11Z</time></trkpt><trkpt lat="51.8355745543" lon="-1.7208324652"><ele>128.47</ele><time>2014-04-30T10:31:13Z</time></trkpt><trkpt lat="51.8357576989" lon="-1.7209104169"><ele>130.88</ele><time>2014-04-30T10:31:34Z</time></trkpt><trkpt lat="51.8359541707" lon="-1.7209409270"><ele>135.20</ele><time>2014-04-30T10:31:51Z</time></trkpt><trkpt lat="51.8359649833" lon="-1.7209422681"><ele>130.40</ele><time>2014-04-30T10:31:52Z</time></trkpt><trkpt lat="51.8359949067" lon="-1.7209382448"><ele>135.20</ele><time>2014-04-30T10:31:55Z</time></trkpt><trkpt lat="51.8360049650" lon="-1.7209375743"><ele>134.72</ele><time>2014-04-30T10:31:56Z</time></trkpt><trkpt lat="51.8360698409" lon="-1.7209500633"><ele>130.40</ele><time>2014-04-30T10:32:02Z</time></trkpt><trkpt lat="51.8360820785" lon="-1.7209483031"><ele>133.76</ele><time>2014-04-30T10:32:03Z</time></trkpt><trkpt lat="51.8363119103" lon="-1.7209681682"><ele>136.16</ele><time>2014-04-30T10:32:24Z</time></trkpt><trkpt lat="51.8364005070" lon="-1.7209881172"><ele>136.16</ele><time>2014-04-30T10:32:32Z</time></trkpt><trkpt lat="51.8365499564" lon="-1.7210194655"><ele>136.64</ele><time>2014-04-30T10:32:49Z</time></trkpt><trkpt lat="51.8367123976" lon="-1.7210195493"><ele>140.49</ele><time>2014-04-30T10:33:03Z</time></trkpt><trkpt lat="51.8367292453" lon="-1.7210115865"><ele>137.13</ele><time>2014-04-30T10:33:04Z</time></trkpt><trkpt lat="51.8367082067" lon="-1.7209734488"><ele>138.57</ele><time>2014-04-30T10:33:23Z</time></trkpt><trkpt lat="51.8367569894" lon="-1.7210312840"><ele>139.05</ele><time>2014-04-30T10:33:42Z</time></trkpt><trkpt lat="51.8369351048" lon="-1.7209182121"><ele>141.45</ele><time>2014-04-30T10:34:00Z</time></trkpt><trkpt lat="51.8370035011" lon="-1.7208697647"><ele>141.93</ele><time>2014-04-30T10:34:12Z</time></trkpt><trkpt lat="51.8370105419" lon="-1.7208694294"><ele>142.89</ele><time>2014-04-30T10:34:34Z</time></trkpt><trkpt lat="51.8370123021" lon="-1.7208718602"><ele>142.41</ele><time>2014-04-30T10:34:53Z</time></trkpt><trkpt lat="51.8370220251" lon="-1.7208638135"><ele>141.93</ele><time>2014-04-30T10:35:12Z</time></trkpt><trkpt lat="51.8370305747" lon="-1.7208618019"><ele>141.45</ele><time>2014-04-30T10:35:42Z</time></trkpt><trkpt lat="51.8370310776" lon="-1.7208612151"><ele>141.45</ele><time>2014-04-30T10:35:47Z</time></trkpt><trkpt lat="51.8370383698" lon="-1.7208500672"><ele>141.93</ele><time>2014-04-30T10:35:49Z</time></trkpt><trkpt lat="51.8370915949" lon="-1.7207552679"><ele>141.93</ele><time>2014-04-30T10:35:57Z</time></trkpt><trkpt lat="51.8371109571" lon="-1.7207440361"><ele>142.89</ele><time>2014-04-30T10:35:59Z</time></trkpt><trkpt lat="51.8371708877" lon="-1.7206608877"><ele>142.89</ele><time>2014-04-30T10:36:15Z</time></trkpt><trkpt lat="51.8372687045" lon="-1.7205135338"><ele>143.85</ele><time>2014-04-30T10:36:28Z</time></trkpt><trkpt lat="51.8373613246" lon="-1.7203971930"><ele>145.30</ele><time>2014-04-30T10:36:41Z</time></trkpt><trkpt lat="51.8373738136" lon="-1.7203937564"><ele>140.01</ele><time>2014-04-30T10:36:52Z</time></trkpt><trkpt lat="51.8373743165" lon="-1.7203928344"><ele>147.22</ele><time>2014-04-30T10:36:53Z</time></trkpt><trkpt lat="51.8373755738" lon="-1.7203921638"><ele>144.34</ele><time>2014-04-30T10:36:54Z</time></trkpt><trkpt lat="51.8373843748" lon="-1.7203902360"><ele>147.70</ele><time>2014-04-30T10:36:58Z</time></trkpt><trkpt lat="51.8373849615" lon="-1.7203903198"><ele>143.85</ele><time>2014-04-30T10:36:59Z</time></trkpt><trkpt lat="51.8373869732" lon="-1.7203893140"><ele>149.62</ele><time>2014-04-30T10:37:06Z</time></trkpt><trkpt lat="51.8373884819" lon="-1.7203894816"><ele>143.85</ele><time>2014-04-30T10:37:07Z</time></trkpt><trkpt lat="51.8373915832" lon="-1.7203888949"><ele>145.30</ele><time>2014-04-30T10:37:10Z</time></trkpt><trkpt lat="51.8374283798" lon="-1.7203114461"><ele>145.78</ele><time>2014-04-30T10:37:34Z</time></trkpt><trkpt lat="51.8374480773" lon="-1.7202540301"><ele>145.78</ele><time>2014-04-30T10:37:39Z</time></trkpt><trkpt lat="51.8375303037" lon="-1.7201377731"><ele>145.78</ele><time>2014-04-30T10:37:52Z</time></trkpt><trkpt lat="51.8375931680" lon="-1.7200406268"><ele>146.26</ele><time>2014-04-30T10:38:02Z</time></trkpt><trkpt lat="51.8376318924" lon="-1.7199844681"><ele>147.22</ele><time>2014-04-30T10:38:08Z</time></trkpt><trkpt lat="51.8376634922" lon="-1.7199340090"><ele>146.74</ele><time>2014-04-30T10:38:13Z</time></trkpt><trkpt lat="51.8377402704" lon="-1.7198131420"><ele>148.18</ele><time>2014-04-30T10:38:25Z</time></trkpt><trkpt lat="51.8378130253" lon="-1.7197044287"><ele>147.70</ele><time>2014-04-30T10:38:36Z</time></trkpt><trkpt lat="51.8378889654" lon="-1.7195933685"><ele>148.66</ele><time>2014-04-30T10:38:47Z</time></trkpt><trkpt lat="51.8379248399" lon="-1.7195538897"><ele>149.14</ele><time>2014-04-30T10:38:51Z</time></trkpt><trkpt lat="51.8380780611" lon="-1.7194184382"><ele>149.62</ele><time>2014-04-30T10:39:04Z</time></trkpt><trkpt lat="51.8381789792" lon="-1.7193420790"><ele>150.10</ele><time>2014-04-30T10:39:16Z</time></trkpt><trkpt lat="51.8381985929" lon="-1.7193380557"><ele>150.10</ele><time>2014-04-30T10:39:39Z</time></trkpt><trkpt lat="51.8381986767" lon="-1.7193343677"><ele>150.58</ele><time>2014-04-30T10:39:57Z</time></trkpt><trkpt lat="51.8382083159" lon="-1.7193327751"><ele>149.62</ele><time>2014-04-30T10:40:17Z</time></trkpt><trkpt lat="51.8382104952" lon="-1.7193328589"><ele>149.62</ele><time>2014-04-30T10:40:37Z</time></trkpt><trkpt lat="51.8382116687" lon="-1.7193315178"><ele>150.10</ele><time>2014-04-30T10:40:51Z</time></trkpt><trkpt lat="51.8382418435" lon="-1.7191801406"><ele>150.58</ele><time>2014-04-30T10:41:05Z</time></trkpt><trkpt lat="51.8382921349" lon="-1.7189304437"><ele>150.58</ele><time>2014-04-30T10:41:23Z</time></trkpt><trkpt lat="51.8383319490" lon="-1.7187127657"><ele>152.03</ele><time>2014-04-30T10:41:38Z</time></trkpt><trkpt lat="51.8383439351" lon="-1.7185492348"><ele>152.51</ele><time>2014-04-30T10:41:53Z</time></trkpt><trkpt lat="51.8383795582" lon="-1.7184292898"><ele>152.03</ele><time>2014-04-30T10:42:07Z</time></trkpt><trkpt lat="51.8384400755" lon="-1.7181754857"><ele>153.47</ele><time>2014-04-30T10:42:22Z</time></trkpt><trkpt lat="51.8384959828" lon="-1.7179945204"><ele>152.99</ele><time>2014-04-30T10:42:32Z</time></trkpt><trkpt lat="51.8385506328" lon="-1.7177399620"><ele>153.95</ele><time>2014-04-30T10:42:49Z</time></trkpt><trkpt lat="51.8385570031" lon="-1.7176932748"><ele>153.95</ele><time>2014-04-30T10:42:52Z</time></trkpt><trkpt lat="51.8385979906" lon="-1.7174679693"><ele>154.91</ele><time>2014-04-30T10:43:07Z</time></trkpt><trkpt lat="51.8386259861" lon="-1.7172683123"><ele>154.43</ele><time>2014-04-30T10:43:22Z</time></trkpt><trkpt lat="51.8386459351" lon="-1.7171794642"><ele>155.39</ele><time>2014-04-30T10:43:27Z</time></trkpt><trkpt lat="51.8387025967" lon="-1.7169036996"><ele>157.31</ele><time>2014-04-30T10:43:46Z</time></trkpt><trkpt lat="51.8387528881" lon="-1.7166436929"><ele>156.83</ele><time>2014-04-30T10:44:01Z</time></trkpt><trkpt lat="51.8388003297" lon="-1.7164503224"><ele>157.79</ele><time>2014-04-30T10:44:14Z</time></trkpt><trkpt lat="51.8388838973" lon="-1.7163160443"><ele>157.31</ele><time>2014-04-30T10:44:28Z</time></trkpt><trkpt lat="51.8389603402" lon="-1.7161364201"><ele>158.75</ele><time>2014-04-30T10:44:41Z</time></trkpt><trkpt lat="51.8389672972" lon="-1.7161199078"><ele>158.27</ele><time>2014-04-30T10:44:42Z</time></trkpt><trkpt lat="51.8390155770" lon="-1.7159470730"><ele>159.24</ele><time>2014-04-30T10:44:55Z</time></trkpt><trkpt lat="51.8390583247" lon="-1.7157292273"><ele>161.16</ele><time>2014-04-30T10:45:10Z</time></trkpt><trkpt lat="51.8390956242" lon="-1.7155358568"><ele>160.68</ele><time>2014-04-30T10:45:23Z</time></trkpt><trkpt lat="51.8391418923" lon="-1.7153372895"><ele>160.68</ele><time>2014-04-30T10:45:37Z</time></trkpt><trkpt lat="51.8391662836" lon="-1.7152012512"><ele>161.64</ele><time>2014-04-30T10:45:46Z</time></trkpt><trkpt lat="51.8391901720" lon="-1.7150403187"><ele>161.16</ele><time>2014-04-30T10:45:57Z</time></trkpt><trkpt lat="51.8392098695" lon="-1.7148710042"><ele>161.16</ele><time>2014-04-30T10:46:09Z</time></trkpt><trkpt lat="51.8392138928" lon="-1.7148203775"><ele>162.12</ele><time>2014-04-30T10:46:12Z</time></trkpt><trkpt lat="51.8392290641" lon="-1.7147209682"><ele>161.64</ele><time>2014-04-30T10:46:18Z</time></trkpt><trkpt lat="51.8392598256" lon="-1.7145504802"><ele>162.60</ele><time>2014-04-30T10:46:31Z</time></trkpt><trkpt lat="51.8392655253" lon="-1.7145052180"><ele>163.08</ele><time>2014-04-30T10:46:35Z</time></trkpt><trkpt lat="51.8392669503" lon="-1.7144915555"><ele>161.64</ele><time>2014-04-30T10:46:36Z</time></trkpt><trkpt lat="51.8393035792" lon="-1.7143006995"><ele>163.08</ele><time>2014-04-30T10:46:49Z</time></trkpt><trkpt lat="51.8393183313" lon="-1.7141541000"><ele>163.56</ele><time>2014-04-30T10:47:02Z</time></trkpt><trkpt lat="51.8393223546" lon="-1.7141470592"><ele>163.56</ele><time>2014-04-30T10:47:04Z</time></trkpt><trkpt lat="51.8393138889" lon="-1.7140665092"><ele>163.08</ele><time>2014-04-30T10:47:19Z</time></trkpt><trkpt lat="51.8393009808" lon="-1.7140353285"><ele>163.08</ele><time>2014-04-30T10:47:34Z</time></trkpt><trkpt lat="51.8392853905" lon="-1.7140177265"><ele>163.56</ele><time>2014-04-30T10:47:36Z</time></trkpt><trkpt lat="51.8392136414" lon="-1.7139698658"><ele>162.60</ele><time>2014-04-30T10:47:46Z</time></trkpt><trkpt lat="51.8391672056" lon="-1.7139556166"><ele>162.12</ele><time>2014-04-30T10:47:51Z</time></trkpt><trkpt lat="51.8391106278" lon="-1.7139356676"><ele>161.16</ele><time>2014-04-30T10:47:59Z</time></trkpt><trkpt lat="51.8390294909" lon="-1.7138857953"><ele>161.64</ele><time>2014-04-30T10:48:08Z</time></trkpt><trkpt lat="51.8389642797" lon="-1.7138637509"><ele>161.16</ele><time>2014-04-30T10:48:14Z</time></trkpt><trkpt lat="51.8389428221" lon="-1.7138557043"><ele>161.16</ele><time>2014-04-30T10:48:16Z</time></trkpt><trkpt lat="51.8389149942" lon="-1.7138500046"><ele>161.16</ele><time>2014-04-30T10:48:19Z</time></trkpt><trkpt lat="51.8388797902" lon="-1.7138522677"><ele>160.20</ele><time>2014-04-30T10:48:23Z</time></trkpt><trkpt lat="51.8387923669" lon="-1.7138225958"><ele>160.20</ele><time>2014-04-30T10:48:33Z</time></trkpt><trkpt lat="51.8387519661" lon="-1.7138257809"><ele>159.72</ele><time>2014-04-30T10:48:38Z</time></trkpt><trkpt lat="51.8386405706" lon="-1.7137971986"><ele>159.24</ele><time>2014-04-30T10:48:51Z</time></trkpt><trkpt lat="51.8386252318" lon="-1.7137883138"><ele>158.75</ele><time>2014-04-30T10:48:53Z</time></trkpt><trkpt lat="51.8385099806" lon="-1.7137643415"><ele>158.75</ele><time>2014-04-30T10:49:06Z</time></trkpt><trkpt lat="51.8384922110" lon="-1.7137594800"><ele>158.27</ele><time>2014-04-30T10:49:08Z</time></trkpt><trkpt lat="51.8383633811" lon="-1.7137112841"><ele>157.79</ele><time>2014-04-30T10:49:22Z</time></trkpt><trkpt lat="51.8383508921" lon="-1.7137055006"><ele>157.31</ele><time>2014-04-30T10:49:23Z</time></trkpt><trkpt lat="51.8383151852" lon="-1.7136889882"><ele>157.31</ele><time>2014-04-30T10:49:26Z</time></trkpt><trkpt lat="51.8382824957" lon="-1.7136724759"><ele>156.83</ele><time>2014-04-30T10:49:28Z</time></trkpt><trkpt lat="51.8381929770" lon="-1.7136445642"><ele>155.87</ele><time>2014-04-30T10:49:36Z</time></trkpt><trkpt lat="51.8381711002" lon="-1.7136314046"><ele>156.35</ele><time>2014-04-30T10:49:38Z</time></trkpt><trkpt lat="51.8381101638" lon="-1.7136124615"><ele>155.39</ele><time>2014-04-30T10:49:44Z</time></trkpt><trkpt lat="51.8380888738" lon="-1.7136109527"><ele>155.39</ele><time>2014-04-30T10:49:46Z</time></trkpt><trkpt lat="51.8380501494" lon="-1.7135989666"><ele>155.39</ele><time>2014-04-30T10:49:49Z</time></trkpt><trkpt lat="51.8380193040" lon="-1.7135924287"><ele>154.43</ele><time>2014-04-30T10:49:52Z</time></trkpt><trkpt lat="51.8379131891" lon="-1.7135661095"><ele>153.95</ele><time>2014-04-30T10:50:03Z</time></trkpt><trkpt lat="51.8378062360" lon="-1.7135412153"><ele>152.03</ele><time>2014-04-30T10:50:14Z</time></trkpt><trkpt lat="51.8378007039" lon="-1.7135299835"><ele>152.99</ele><time>2014-04-30T10:50:17Z</time></trkpt><trkpt lat="51.8377494067" lon="-1.7135218531"><ele>152.03</ele><time>2014-04-30T10:50:23Z</time></trkpt><trkpt lat="51.8376307189" lon="-1.7134631798"><ele>151.06</ele><time>2014-04-30T10:50:33Z</time></trkpt><trkpt lat="51.8376013823" lon="-1.7134532891"><ele>151.06</ele><time>2014-04-30T10:50:36Z</time></trkpt><trkpt lat="51.8375501689" lon="-1.7134372797"><ele>151.06</ele><time>2014-04-30T10:50:48Z</time></trkpt><trkpt lat="51.8374535255" lon="-1.7133738287"><ele>150.58</ele><time>2014-04-30T10:50:59Z</time></trkpt><trkpt lat="51.8374005519" lon="-1.7133501917"><ele>149.14</ele><time>2014-04-30T10:51:03Z</time></trkpt><trkpt lat="51.8372617476" lon="-1.7132880818"><ele>147.70</ele><time>2014-04-30T10:51:15Z</time></trkpt><trkpt lat="51.8372511026" lon="-1.7132921889"><ele>147.22</ele><time>2014-04-30T10:51:22Z</time></trkpt><trkpt lat="51.8372135516" lon="-1.7132758442"><ele>146.74</ele><time>2014-04-30T10:51:25Z</time></trkpt><trkpt lat="51.8371568900" lon="-1.7132598348"><ele>145.78</ele><time>2014-04-30T10:51:31Z</time></trkpt><trkpt lat="51.8371365219" lon="-1.7132603377"><ele>145.78</ele><time>2014-04-30T10:51:33Z</time></trkpt><trkpt lat="51.8371118791" lon="-1.7132682167"><ele>145.30</ele><time>2014-04-30T10:51:46Z</time></trkpt><trkpt lat="51.8371077720" lon="-1.7133144010"><ele>145.78</ele><time>2014-04-30T10:52:05Z</time></trkpt><trkpt lat="51.8370938580" lon="-1.7133110482"><ele>145.30</ele><time>2014-04-30T10:52:24Z</time></trkpt><trkpt lat="51.8370701373" lon="-1.7133149877"><ele>145.30</ele><time>2014-04-30T10:52:37Z</time></trkpt><trkpt lat="51.8370748311" lon="-1.7133166641"><ele>144.82</ele><time>2014-04-30T10:53:01Z</time></trkpt><trkpt lat="51.8370737415" lon="-1.7133239564"><ele>145.30</ele><time>2014-04-30T10:53:30Z</time></trkpt><trkpt lat="51.8370589055" lon="-1.7133066896"><ele>145.30</ele><time>2014-04-30T10:53:52Z</time></trkpt><trkpt lat="51.8370387889" lon="-1.7132986430"><ele>144.34</ele><time>2014-04-30T10:54:09Z</time></trkpt><trkpt lat="51.8370275572" lon="-1.7132940330"><ele>144.82</ele><time>2014-04-30T10:54:35Z</time></trkpt><trkpt lat="51.8370234501" lon="-1.7132900935"><ele>144.34</ele><time>2014-04-30T10:54:36Z</time></trkpt><trkpt lat="51.8369331770" lon="-1.7132454179"><ele>143.85</ele><time>2014-04-30T10:54:45Z</time></trkpt><trkpt lat="51.8367362022" lon="-1.7131523788"><ele>141.93</ele><time>2014-04-30T10:54:58Z</time></trkpt><trkpt lat="51.8366280757" lon="-1.7131237127"><ele>140.49</ele><time>2014-04-30T10:55:05Z</time></trkpt><trkpt lat="51.8365302589" lon="-1.7130650394"><ele>138.57</ele><time>2014-04-30T10:55:13Z</time></trkpt><trkpt lat="51.8364622816" lon="-1.7130816355"><ele>137.61</ele><time>2014-04-30T10:55:27Z</time></trkpt><trkpt lat="51.8364518043" lon="-1.7130760197"><ele>137.61</ele><time>2014-04-30T10:55:39Z</time></trkpt><trkpt lat="51.8363761995" lon="-1.7130426597"><ele>136.64</ele><time>2014-04-30T10:55:44Z</time></trkpt><trkpt lat="51.8362544104" lon="-1.7130107246"><ele>136.16</ele><time>2014-04-30T10:55:50Z</time></trkpt><trkpt lat="51.8361758720" lon="-1.7129860818"><ele>135.20</ele><time>2014-04-30T10:55:55Z</time></trkpt><trkpt lat="51.8361556716" lon="-1.7129919492"><ele>135.20</ele><time>2014-04-30T10:55:57Z</time></trkpt><trkpt lat="51.8360126764" lon="-1.7128177732"><ele>132.80</ele><time>2014-04-30T10:56:10Z</time></trkpt><trkpt lat="51.8358812481" lon="-1.7126490455"><ele>134.24</ele><time>2014-04-30T10:56:21Z</time></trkpt><trkpt lat="51.8358702678" lon="-1.7126337066"><ele>132.80</ele><time>2014-04-30T10:56:23Z</time></trkpt><trkpt lat="51.8357141130" lon="-1.7124075629"><ele>132.32</ele><time>2014-04-30T10:56:36Z</time></trkpt><trkpt lat="51.8356828485" lon="-1.7123518232"><ele>131.36</ele><time>2014-04-30T10:56:41Z</time></trkpt><trkpt lat="51.8355772365" lon="-1.7122032121"><ele>131.36</ele><time>2014-04-30T10:56:52Z</time></trkpt><trkpt lat="51.8355727103" lon="-1.7122165393"><ele>130.40</ele><time>2014-04-30T10:56:53Z</time></trkpt><trkpt lat="51.8355370034" lon="-1.7123550922"><ele>129.43</ele><time>2014-04-30T10:57:05Z</time></trkpt><trkpt lat="51.8355749734" lon="-1.7121922318"><ele>130.88</ele><time>2014-04-30T10:57:13Z</time></trkpt><trkpt lat="51.8355078343" lon="-1.7120348196"><ele>129.92</ele><time>2014-04-30T10:57:20Z</time></trkpt><trkpt lat="51.8353645876" lon="-1.7117989529"><ele>130.40</ele><time>2014-04-30T10:57:34Z</time></trkpt><trkpt lat="51.8352559581" lon="-1.7116532754"><ele>131.36</ele><time>2014-04-30T10:57:45Z</time></trkpt><trkpt lat="51.8351378571" lon="-1.7115269601"><ele>133.76</ele><time>2014-04-30T10:57:53Z</time></trkpt><trkpt lat="51.8350055907" lon="-1.7112926021"><ele>135.20</ele><time>2014-04-30T10:58:07Z</time></trkpt><trkpt lat="51.8348997273" lon="-1.7110755946"><ele>137.13</ele><time>2014-04-30T10:58:20Z</time></trkpt><trkpt lat="51.8347795308" lon="-1.7108851578"><ele>138.57</ele><time>2014-04-30T10:58:32Z</time></trkpt><trkpt lat="51.8347732443" lon="-1.7108456790"><ele>139.53</ele><time>2014-04-30T10:58:35Z</time></trkpt><trkpt lat="51.8347379565" lon="-1.7107794620"><ele>140.01</ele><time>2014-04-30T10:58:39Z</time></trkpt><trkpt lat="51.8346280698" lon="-1.7106161825"><ele>140.97</ele><time>2014-04-30T10:58:52Z</time></trkpt><trkpt lat="51.8344902713" lon="-1.7103767116"><ele>141.45</ele><time>2014-04-30T10:59:07Z</time></trkpt><trkpt lat="51.8343406543" lon="-1.7100930680"><ele>140.97</ele><time>2014-04-30T10:59:21Z</time></trkpt><trkpt lat="51.8342373054" lon="-1.7098976020"><ele>140.01</ele><time>2014-04-30T10:59:32Z</time></trkpt><trkpt lat="51.8340622913" lon="-1.7096660100"><ele>141.93</ele><time>2014-04-30T10:59:46Z</time></trkpt><trkpt lat="51.8339581881" lon="-1.7094434705"><ele>143.37</ele><time>2014-04-30T10:59:59Z</time></trkpt><trkpt lat="51.8338728603" lon="-1.7093207594"><ele>144.82</ele><time>2014-04-30T11:00:08Z</time></trkpt><trkpt lat="51.8337200582" lon="-1.7091160733"><ele>148.18</ele><time>2014-04-30T11:00:20Z</time></trkpt><trkpt lat="51.8337156996" lon="-1.7091028299"><ele>147.70</ele><time>2014-04-30T11:00:21Z</time></trkpt><trkpt lat="51.8335708603" lon="-1.7088766862"><ele>150.10</ele><time>2014-04-30T11:00:33Z</time></trkpt><trkpt lat="51.8335180543" lon="-1.7088211980"><ele>151.54</ele><time>2014-04-30T11:00:40Z</time></trkpt><trkpt lat="51.8335039727" lon="-1.7087683920"><ele>151.06</ele><time>2014-04-30T11:00:43Z</time></trkpt><trkpt lat="51.8334048986" lon="-1.7086688150"><ele>153.47</ele><time>2014-04-30T11:00:52Z</time></trkpt><trkpt lat="51.8333931640" lon="-1.7086480279"><ele>152.99</ele><time>2014-04-30T11:00:54Z</time></trkpt><trkpt lat="51.8333500810" lon="-1.7085931264"><ele>153.95</ele><time>2014-04-30T11:00:58Z</time></trkpt><trkpt lat="51.8332880549" lon="-1.7085201200"><ele>154.43</ele><time>2014-04-30T11:01:04Z</time></trkpt><trkpt lat="51.8332291301" lon="-1.7084216326"><ele>155.39</ele><time>2014-04-30T11:01:10Z</time></trkpt><trkpt lat="51.8330983724" lon="-1.7082617059"><ele>156.83</ele><time>2014-04-30T11:01:22Z</time></trkpt><trkpt lat="51.8330429681" lon="-1.7081797309"><ele>157.31</ele><time>2014-04-30T11:01:28Z</time></trkpt><trkpt lat="51.8330184929" lon="-1.7081275117"><ele>156.83</ele><time>2014-04-30T11:01:31Z</time></trkpt><trkpt lat="51.8329938501" lon="-1.7080968339"><ele>157.79</ele><time>2014-04-30T11:01:33Z</time></trkpt><trkpt lat="51.8328604102" lon="-1.7079034634"><ele>159.72</ele><time>2014-04-30T11:01:46Z</time></trkpt><trkpt lat="51.8328274693" lon="-1.7078443710"><ele>159.72</ele><time>2014-04-30T11:01:50Z</time></trkpt><trkpt lat="51.8328076042" lon="-1.7078390066"><ele>159.24</ele><time>2014-04-30T11:01:52Z</time></trkpt><trkpt lat="51.8327834643" lon="-1.7077863682"><ele>160.68</ele><time>2014-04-30T11:01:55Z</time></trkpt><trkpt lat="51.8326580711" lon="-1.7076309677"><ele>160.68</ele><time>2014-04-30T11:02:06Z</time></trkpt><trkpt lat="51.8325127289" lon="-1.7074637488"><ele>162.12</ele><time>2014-04-30T11:02:19Z</time></trkpt><trkpt lat="51.8324540555" lon="-1.7073731404"><ele>162.12</ele><time>2014-04-30T11:02:26Z</time></trkpt><trkpt lat="51.8323258124" lon="-1.7072051670"><ele>162.60</ele><time>2014-04-30T11:02:38Z</time></trkpt><trkpt lat="51.8322191108" lon="-1.7070454080"><ele>164.04</ele><time>2014-04-30T11:02:50Z</time></trkpt><trkpt lat="51.8322075438" lon="-1.7070263810"><ele>163.08</ele><time>2014-04-30T11:02:52Z</time></trkpt><trkpt lat="51.8321613595" lon="-1.7069606669"><ele>164.04</ele><time>2014-04-30T11:02:56Z</time></trkpt><trkpt lat="51.8321069609" lon="-1.7068994790"><ele>164.04</ele><time>2014-04-30T11:03:01Z</time></trkpt><trkpt lat="51.8320858385" lon="-1.7068594135"><ele>165.00</ele><time>2014-04-30T11:03:04Z</time></trkpt><trkpt lat="51.8319495488" lon="-1.7066817172"><ele>165.48</ele><time>2014-04-30T11:03:17Z</time></trkpt><trkpt lat="51.8318382371" lon="-1.7065214552"><ele>166.45</ele><time>2014-04-30T11:03:28Z</time></trkpt><trkpt lat="51.8317832518" lon="-1.7064189445"><ele>166.45</ele><time>2014-04-30T11:03:34Z</time></trkpt><trkpt lat="51.8317163642" lon="-1.7063120753"><ele>166.45</ele><time>2014-04-30T11:03:42Z</time></trkpt><trkpt lat="51.8317122571" lon="-1.7062901147"><ele>166.93</ele><time>2014-04-30T11:03:54Z</time></trkpt><trkpt lat="51.8316996843" lon="-1.7062938027"><ele>167.89</ele><time>2014-04-30T11:04:04Z</time></trkpt><trkpt lat="51.8316436093" lon="-1.7062584311"><ele>166.93</ele><time>2014-04-30T11:04:09Z</time></trkpt><trkpt lat="51.8316189665" lon="-1.7062262446"><ele>166.45</ele><time>2014-04-30T11:04:12Z</time></trkpt><trkpt lat="51.8315125164" lon="-1.7060631327"><ele>167.89</ele><time>2014-04-30T11:04:23Z</time></trkpt><trkpt lat="51.8314015400" lon="-1.7059180420"><ele>167.89</ele><time>2014-04-30T11:04:34Z</time></trkpt><trkpt lat="51.8313774001" lon="-1.7058765516"><ele>167.89</ele><time>2014-04-30T11:04:37Z</time></trkpt><trkpt lat="51.8312641606" lon="-1.7057267670"><ele>168.85</ele><time>2014-04-30T11:04:49Z</time></trkpt><trkpt lat="51.8311526813" lon="-1.7055793293"><ele>167.89</ele><time>2014-04-30T11:05:01Z</time></trkpt><trkpt lat="51.8310371786" lon="-1.7054196540"><ele>168.85</ele><time>2014-04-30T11:05:13Z</time></trkpt><trkpt lat="51.8310230970" lon="-1.7054093443"><ele>169.33</ele><time>2014-04-30T11:05:14Z</time></trkpt><trkpt lat="51.8309961073" lon="-1.7053774092"><ele>169.33</ele><time>2014-04-30T11:05:17Z</time></trkpt><trkpt lat="51.8308874778" lon="-1.7052124534"><ele>169.81</ele><time>2014-04-30T11:05:30Z</time></trkpt><trkpt lat="51.8307613302" lon="-1.7050570529"><ele>169.81</ele><time>2014-04-30T11:05:42Z</time></trkpt><trkpt lat="51.8306719791" lon="-1.7048714776"><ele>170.29</ele><time>2014-04-30T11:05:54Z</time></trkpt><trkpt lat="51.8306708056" lon="-1.7048795242"><ele>170.29</ele><time>2014-04-30T11:05:58Z</time></trkpt><trkpt lat="51.8305464182" lon="-1.7047244590"><ele>170.77</ele><time>2014-04-30T11:06:11Z</time></trkpt><trkpt lat="51.8304436561" lon="-1.7045749258"><ele>171.25</ele><time>2014-04-30T11:06:22Z</time></trkpt><trkpt lat="51.8304391298" lon="-1.7045623530"><ele>169.81</ele><time>2014-04-30T11:06:23Z</time></trkpt><trkpt lat="51.8304281496" lon="-1.7045331001"><ele>170.77</ele><time>2014-04-30T11:06:25Z</time></trkpt><trkpt lat="51.8303682189" lon="-1.7044582497"><ele>170.77</ele><time>2014-04-30T11:06:31Z</time></trkpt><trkpt lat="51.8302838132" lon="-1.7043183558"><ele>170.77</ele><time>2014-04-30T11:06:41Z</time></trkpt><trkpt lat="51.8301681429" lon="-1.7041923758"><ele>170.77</ele><time>2014-04-30T11:06:54Z</time></trkpt><trkpt lat="51.8301317655" lon="-1.7041548248"><ele>170.77</ele><time>2014-04-30T11:07:08Z</time></trkpt><trkpt lat="51.8301382195" lon="-1.7041466944"><ele>170.77</ele><time>2014-04-30T11:07:26Z</time></trkpt><trkpt lat="51.8301387224" lon="-1.7041536514"><ele>171.25</ele><time>2014-04-30T11:07:45Z</time></trkpt><trkpt lat="51.8301383033" lon="-1.7041564174"><ele>170.77</ele><time>2014-04-30T11:08:15Z</time></trkpt><trkpt lat="51.8301388063" lon="-1.7041559145"><ele>170.77</ele><time>2014-04-30T11:08:34Z</time></trkpt><trkpt lat="51.8301401474" lon="-1.7041536514"><ele>170.77</ele><time>2014-04-30T11:09:02Z</time></trkpt><trkpt lat="51.8300735112" lon="-1.7040829919"><ele>170.77</ele><time>2014-04-30T11:09:20Z</time></trkpt><trkpt lat="51.8299363833" lon="-1.7039838340"><ele>171.25</ele><time>2014-04-30T11:09:37Z</time></trkpt><trkpt lat="51.8297739420" lon="-1.7038556747"><ele>169.81</ele><time>2014-04-30T11:09:54Z</time></trkpt><trkpt lat="51.8296274263" lon="-1.7037597019"><ele>170.29</ele><time>2014-04-30T11:10:11Z</time></trkpt><trkpt lat="51.8294580281" lon="-1.7036376614"><ele>168.85</ele><time>2014-04-30T11:10:28Z</time></trkpt><trkpt lat="51.8293674197" lon="-1.7035723664"><ele>168.37</ele><time>2014-04-30T11:10:38Z</time></trkpt><trkpt lat="51.8293141946" lon="-1.7035436165"><ele>168.37</ele><time>2014-04-30T11:10:44Z</time></trkpt><trkpt lat="51.8292840198" lon="-1.7035189737"><ele>168.37</ele><time>2014-04-30T11:10:47Z</time></trkpt><trkpt lat="51.8291098438" lon="-1.7033943348"><ele>167.89</ele><time>2014-04-30T11:11:05Z</time></trkpt><trkpt lat="51.8289691117" lon="-1.7033109348"><ele>166.93</ele><time>2014-04-30T11:11:20Z</time></trkpt><trkpt lat="51.8288857117" lon="-1.7032716237"><ele>167.41</ele><time>2014-04-30T11:11:30Z</time></trkpt><trkpt lat="51.8288258649" lon="-1.7032462265"><ele>167.89</ele><time>2014-04-30T11:11:37Z</time></trkpt><trkpt lat="51.8286902457" lon="-1.7031624913"><ele>168.37</ele><time>2014-04-30T11:11:52Z</time></trkpt><trkpt lat="51.8286377750" lon="-1.7031186540"><ele>168.85</ele><time>2014-04-30T11:11:57Z</time></trkpt><trkpt lat="51.8284883257" lon="-1.7029741500"><ele>168.85</ele><time>2014-04-30T11:12:12Z</time></trkpt><trkpt lat="51.8284799438" lon="-1.7029703781"><ele>169.81</ele><time>2014-04-30T11:12:13Z</time></trkpt><trkpt lat="51.8283318356" lon="-1.7028743215"><ele>170.29</ele><time>2014-04-30T11:12:30Z</time></trkpt><trkpt lat="51.8282030057" lon="-1.7027986329"><ele>170.29</ele><time>2014-04-30T11:12:44Z</time></trkpt><trkpt lat="51.8280540593" lon="-1.7027123831"><ele>170.29</ele><time>2014-04-30T11:13:00Z</time></trkpt><trkpt lat="51.8279164284" lon="-1.7026247922"><ele>169.81</ele><time>2014-04-30T11:13:16Z</time></trkpt><trkpt lat="51.8278374709" lon="-1.7025432363"><ele>169.81</ele><time>2014-04-30T11:13:29Z</time></trkpt><trkpt lat="51.8277111556" lon="-1.7024552263"><ele>169.33</ele><time>2014-04-30T11:13:44Z</time></trkpt><trkpt lat="51.8276170269" lon="-1.7023863271"><ele>169.33</ele><time>2014-04-30T11:13:53Z</time></trkpt><trkpt lat="51.8274645600" lon="-1.7023053579"><ele>168.85</ele><time>2014-04-30T11:14:10Z</time></trkpt><trkpt lat="51.8273569364" lon="-1.7022673879"><ele>167.41</ele><time>2014-04-30T11:14:22Z</time></trkpt><trkpt lat="51.8272052240" lon="-1.7021803837"><ele>166.93</ele><time>2014-04-30T11:14:38Z</time></trkpt><trkpt lat="51.8271657452" lon="-1.7021520529"><ele>166.45</ele><time>2014-04-30T11:14:43Z</time></trkpt><trkpt lat="51.8269976042" lon="-1.7020214628"><ele>164.52</ele><time>2014-04-30T11:14:59Z</time></trkpt><trkpt lat="51.8269388471" lon="-1.7019750271"><ele>164.04</ele><time>2014-04-30T11:15:07Z</time></trkpt><trkpt lat="51.8268391024" lon="-1.7019240651"><ele>163.08</ele><time>2014-04-30T11:15:17Z</time></trkpt><trkpt lat="51.8267059140" lon="-1.7017932236"><ele>163.08</ele><time>2014-04-30T11:15:33Z</time></trkpt><trkpt lat="51.8265502620" lon="-1.7016699258"><ele>163.08</ele><time>2014-04-30T11:15:49Z</time></trkpt><trkpt lat="51.8264931813" lon="-1.7016272619"><ele>161.64</ele><time>2014-04-30T11:16:04Z</time></trkpt><trkpt lat="51.8264309037" lon="-1.7015673313"><ele>162.12</ele><time>2014-04-30T11:16:16Z</time></trkpt><trkpt lat="51.8263009004" lon="-1.7014561035"><ele>162.60</ele><time>2014-04-30T11:16:31Z</time></trkpt><trkpt lat="51.8261297420" lon="-1.7013286985"><ele>162.12</ele><time>2014-04-30T11:16:47Z</time></trkpt><trkpt lat="51.8259989005" lon="-1.7012407724"><ele>161.64</ele><time>2014-04-30T11:17:01Z</time></trkpt><trkpt lat="51.8259214517" lon="-1.7012458853"><ele>161.16</ele><time>2014-04-30T11:17:15Z</time></trkpt><trkpt lat="51.8258710764" lon="-1.7012782395"><ele>161.16</ele><time>2014-04-30T11:17:29Z</time></trkpt><trkpt lat="51.8258672208" lon="-1.7012714501"><ele>160.68</ele><time>2014-04-30T11:17:53Z</time></trkpt><trkpt lat="51.8258654606" lon="-1.7012658343"><ele>161.16</ele><time>2014-04-30T11:18:25Z</time></trkpt><trkpt lat="51.8258455116" lon="-1.7012427840"><ele>161.64</ele><time>2014-04-30T11:18:48Z</time></trkpt><trkpt lat="51.8257983215" lon="-1.7011967674"><ele>161.16</ele><time>2014-04-30T11:18:53Z</time></trkpt><trkpt lat="51.8256564159" lon="-1.7011945881"><ele>160.68</ele><time>2014-04-30T11:19:07Z</time></trkpt><trkpt lat="51.8256264087" lon="-1.7012488190"><ele>160.20</ele><time>2014-04-30T11:19:27Z</time></trkpt><trkpt lat="51.8256227206" lon="-1.7012572009"><ele>160.20</ele><time>2014-04-30T11:20:02Z</time></trkpt><trkpt lat="51.8255918752" lon="-1.7012379225"><ele>160.68</ele><time>2014-04-30T11:20:06Z</time></trkpt><trkpt lat="51.8255409133" lon="-1.7012266908"><ele>159.72</ele><time>2014-04-30T11:20:11Z</time></trkpt><trkpt lat="51.8255268317" lon="-1.7012287024"><ele>160.20</ele><time>2014-04-30T11:20:12Z</time></trkpt><trkpt lat="51.8254870176" lon="-1.7012221646"><ele>159.72</ele><time>2014-04-30T11:20:16Z</time></trkpt><trkpt lat="51.8254606985" lon="-1.7012070771"><ele>160.68</ele><time>2014-04-30T11:20:18Z</time></trkpt><trkpt lat="51.8253249954" lon="-1.7012202367"><ele>159.72</ele><time>2014-04-30T11:20:31Z</time></trkpt><trkpt lat="51.8252401706" lon="-1.7012209911"><ele>159.72</ele><time>2014-04-30T11:20:38Z</time></trkpt><trkpt lat="51.8251017015" lon="-1.7012596317"><ele>159.72</ele><time>2014-04-30T11:20:51Z</time></trkpt><trkpt lat="51.8250249233" lon="-1.7013046425"><ele>159.72</ele><time>2014-04-30T11:20:59Z</time></trkpt><trkpt lat="51.8248584587" lon="-1.7013696022"><ele>159.72</ele><time>2014-04-30T11:21:15Z</time></trkpt><trkpt lat="51.8246500846" lon="-1.7013687640"><ele>158.75</ele><time>2014-04-30T11:21:31Z</time></trkpt><trkpt lat="51.8244960252" lon="-1.7013039719"><ele>156.35</ele><time>2014-04-30T11:21:41Z</time></trkpt><trkpt lat="51.8242712226" lon="-1.7013558559"><ele>156.35</ele><time>2014-04-30T11:21:57Z</time></trkpt><trkpt lat="51.8242159020" lon="-1.7013689317"><ele>155.87</ele><time>2014-04-30T11:22:01Z</time></trkpt><trkpt lat="51.8241302390" lon="-1.7013922334"><ele>154.91</ele><time>2014-04-30T11:22:09Z</time></trkpt><trkpt lat="51.8240393791" lon="-1.7014205642"><ele>155.39</ele><time>2014-04-30T11:22:17Z</time></trkpt><trkpt lat="51.8239834718" lon="-1.7014211509"><ele>154.91</ele><time>2014-04-30T11:22:21Z</time></trkpt><trkpt lat="51.8237393070" lon="-1.7014471348"><ele>152.51</ele><time>2014-04-30T11:22:39Z</time></trkpt><trkpt lat="51.8235588446" lon="-1.7014383338"><ele>152.03</ele><time>2014-04-30T11:22:50Z</time></trkpt><trkpt lat="51.8234546576" lon="-1.7014759686"><ele>152.03</ele><time>2014-04-30T11:23:06Z</time></trkpt><trkpt lat="51.8234367203" lon="-1.7014708556"><ele>151.54</ele><time>2014-04-30T11:23:26Z</time></trkpt><trkpt lat="51.8234277517" lon="-1.7014013696"><ele>152.03</ele><time>2014-04-30T11:23:44Z</time></trkpt><trkpt lat="51.8234397378" lon="-1.7014876194"><ele>151.54</ele><time>2014-04-30T11:24:02Z</time></trkpt><trkpt lat="51.8233758677" lon="-1.7015094962"><ele>151.06</ele><time>2014-04-30T11:24:27Z</time></trkpt><trkpt lat="51.8231537472" lon="-1.7014978454"><ele>152.03</ele><time>2014-04-30T11:24:44Z</time></trkpt><trkpt lat="51.8231200520" lon="-1.7014778964"><ele>149.62</ele><time>2014-04-30T11:24:48Z</time></trkpt><trkpt lat="51.8228881247" lon="-1.7014088295"><ele>148.66</ele><time>2014-04-30T11:25:08Z</time></trkpt><trkpt lat="51.8226678483" lon="-1.7012254335"><ele>148.18</ele><time>2014-04-30T11:25:22Z</time></trkpt><trkpt lat="51.8224632461" lon="-1.7010445520"><ele>145.78</ele><time>2014-04-30T11:25:38Z</time></trkpt><trkpt lat="51.8222999666" lon="-1.7009403650"><ele>143.85</ele><time>2014-04-30T11:25:51Z</time></trkpt><trkpt lat="51.8220876530" lon="-1.7008535285"><ele>142.89</ele><time>2014-04-30T11:26:06Z</time></trkpt><trkpt lat="51.8219165783" lon="-1.7007770017"><ele>142.89</ele><time>2014-04-30T11:26:17Z</time></trkpt><trkpt lat="51.8217061087" lon="-1.7007594835"><ele>141.45</ele><time>2014-04-30T11:26:37Z</time></trkpt><trkpt lat="51.8216108065" lon="-1.7008200847"><ele>140.97</ele><time>2014-04-30T11:26:54Z</time></trkpt><trkpt lat="51.8214243930" lon="-1.7006474175"><ele>140.01</ele><time>2014-04-30T11:27:05Z</time></trkpt><trkpt lat="51.8211995903" lon="-1.7004636023"><ele>139.05</ele><time>2014-04-30T11:27:25Z</time></trkpt><trkpt lat="51.8210226484" lon="-1.7004257161"><ele>137.61</ele><time>2014-04-30T11:27:44Z</time></trkpt><trkpt lat="51.8208611291" lon="-1.7005799431"><ele>137.13</ele><time>2014-04-30T11:28:03Z</time></trkpt><trkpt lat="51.8207318801" lon="-1.7008286342"><ele>135.20</ele><time>2014-04-30T11:28:19Z</time></trkpt><trkpt lat="51.8206320517" lon="-1.7010602262"><ele>134.72</ele><time>2014-04-30T11:28:33Z</time></trkpt><trkpt lat="51.8205318041" lon="-1.7012585420"><ele>134.72</ele><time>2014-04-30T11:28:46Z</time></trkpt><trkpt lat="51.8204449676" lon="-1.7015051376"><ele>133.28</ele><time>2014-04-30T11:29:01Z</time></trkpt><trkpt lat="51.8204416148" lon="-1.7015145253"><ele>134.24</ele><time>2014-04-30T11:29:02Z</time></trkpt><trkpt lat="51.8204356637" lon="-1.7015492264"><ele>133.76</ele><time>2014-04-30T11:29:04Z</time></trkpt><trkpt lat="51.8203193229" lon="-1.7017301917"><ele>133.28</ele><time>2014-04-30T11:29:19Z</time></trkpt><trkpt lat="51.8202581350" lon="-1.7017960735"><ele>133.28</ele><time>2014-04-30T11:29:28Z</time></trkpt><trkpt lat="51.8202020600" lon="-1.7018211354"><ele>133.28</ele><time>2014-04-30T11:29:32Z</time></trkpt><trkpt lat="51.8199989665" lon="-1.7019126657"><ele>132.32</ele><time>2014-04-30T11:29:48Z</time></trkpt><trkpt lat="51.8198620062" lon="-1.7019158509"><ele>130.88</ele><time>2014-04-30T11:30:00Z</time></trkpt><trkpt lat="51.8197404686" lon="-1.7019200418"><ele>130.40</ele><time>2014-04-30T11:30:15Z</time></trkpt><trkpt lat="51.8197141495" lon="-1.7019171081"><ele>130.88</ele><time>2014-04-30T11:30:19Z</time></trkpt><trkpt lat="51.8196922727" lon="-1.7019162700"><ele>130.88</ele><time>2014-04-30T11:30:21Z</time></trkpt><trkpt lat="51.8194828928" lon="-1.7019121628"><ele>129.43</ele><time>2014-04-30T11:30:37Z</time></trkpt><trkpt lat="51.8192767818" lon="-1.7018930521"><ele>128.47</ele><time>2014-04-30T11:30:52Z</time></trkpt><trkpt lat="51.8192106485" lon="-1.7018984165"><ele>128.95</ele><time>2014-04-30T11:30:56Z</time></trkpt><trkpt lat="51.8192023505" lon="-1.7019278370"><ele>127.99</ele><time>2014-04-30T11:31:02Z</time></trkpt><trkpt lat="51.8191010132" lon="-1.7021093890"><ele>127.03</ele><time>2014-04-30T11:31:19Z</time></trkpt><trkpt lat="51.8190939724" lon="-1.7021231353"><ele>126.55</ele><time>2014-04-30T11:31:20Z</time></trkpt><trkpt lat="51.8190341257" lon="-1.7023953795"><ele>125.59</ele><time>2014-04-30T11:31:34Z</time></trkpt><trkpt lat="51.8189109955" lon="-1.7025622632"><ele>124.63</ele><time>2014-04-30T11:31:51Z</time></trkpt><trkpt lat="51.8188634701" lon="-1.7025776021"><ele>124.15</ele><time>2014-04-30T11:31:55Z</time></trkpt><trkpt lat="51.8186513241" lon="-1.7026776820"><ele>121.74</ele><time>2014-04-30T11:32:12Z</time></trkpt><trkpt lat="51.8184516672" lon="-1.7027921788"><ele>119.82</ele><time>2014-04-30T11:32:31Z</time></trkpt><trkpt lat="51.8184158765" lon="-1.7029103637"><ele>117.90</ele><time>2014-04-30T11:32:48Z</time></trkpt><trkpt lat="51.8183874618" lon="-1.7029665224"><ele>117.90</ele><time>2014-04-30T11:33:00Z</time></trkpt><trkpt lat="51.8182401080" lon="-1.7030309793"><ele>116.46</ele><time>2014-04-30T11:33:11Z</time></trkpt><trkpt lat="51.8180753198" lon="-1.7029806040"><ele>114.05</ele><time>2014-04-30T11:33:27Z</time></trkpt><trkpt lat="51.8178863917" lon="-1.7030256987"><ele>112.61</ele><time>2014-04-30T11:33:47Z</time></trkpt><trkpt lat="51.8177184183" lon="-1.7032016348"><ele>112.13</ele><time>2014-04-30T11:34:08Z</time></trkpt><trkpt lat="51.8175760936" lon="-1.7034650780"><ele>111.65</ele><time>2014-04-30T11:34:29Z</time></trkpt><trkpt lat="51.8175488524" lon="-1.7035293672"><ele>111.17</ele><time>2014-04-30T11:34:33Z</time></trkpt><trkpt lat="51.8173907697" lon="-1.7038359772"><ele>111.65</ele><time>2014-04-30T11:34:54Z</time></trkpt><trkpt lat="51.8173535541" lon="-1.7038687505"><ele>111.65</ele><time>2014-04-30T11:34:58Z</time></trkpt><trkpt lat="51.8172034342" lon="-1.7040859256"><ele>111.65</ele><time>2014-04-30T11:35:15Z</time></trkpt><trkpt lat="51.8170101475" lon="-1.7042988259"><ele>110.69</ele><time>2014-04-30T11:35:34Z</time></trkpt><trkpt lat="51.8168232311" lon="-1.7045272328"><ele>111.65</ele><time>2014-04-30T11:35:53Z</time></trkpt><trkpt lat="51.8166680820" lon="-1.7046677135"><ele>111.65</ele><time>2014-04-30T11:36:11Z</time></trkpt><trkpt lat="51.8166664895" lon="-1.7045698129"><ele>110.69</ele><time>2014-04-30T11:36:27Z</time></trkpt><trkpt lat="51.8166467920" lon="-1.7045974731"><ele>111.17</ele><time>2014-04-30T11:36:52Z</time></trkpt><trkpt lat="51.8166431040" lon="-1.7046171706"><ele>111.17</ele><time>2014-04-30T11:36:57Z</time></trkpt></trkseg></trk></gpx>